createdAt,value
2022-12-03T00:00:27.197Z,71.90
2022-12-03T00:03:47.931Z,71.57
2022-12-03T00:06:50.099Z,71.52
2022-12-03T00:10:11.624Z,72.11
2022-12-03T00:13:31.851Z,71.42
2022-12-03T00:16:34.296Z,72.04
2022-12-03T00:19:36.457Z,71.12
2022-12-03T00:22:38.482Z,71.95
2022-12-03T00:25:59.239Z,71.03
2022-12-03T00:29:01.262Z,71.69
2022-12-03T00:32:03.618Z,72.13
2022-12-03T00:35:06.096Z,71.39
2022-12-03T00:38:08.286Z,71.95
2022-12-03T00:41:10.395Z,71.62
2022-12-03T00:44:12.582Z,71.12
2022-12-03T00:47:14.877Z,71.08
2022-12-03T00:50:17.080Z,71.23
2022-12-03T00:53:19.117Z,71.48
2022-12-03T00:56:21.382Z,71.39
2022-12-03T00:59:25.092Z,71.76
2022-12-03T01:02:27.208Z,71.03
2022-12-03T01:05:29.293Z,71.28
2022-12-03T01:08:31.380Z,70.99
2022-12-03T01:11:40.927Z,71.24
2022-12-03T01:14:43.964Z,71.97
2022-12-03T01:18:04.279Z,71.79
2022-12-03T01:21:06.589Z,71.59
2022-12-03T01:24:09.057Z,71.81
2022-12-03T01:27:11.472Z,71.66
2022-12-03T01:30:14.449Z,71.73
2022-12-03T01:33:16.601Z,71.48
2022-12-03T01:36:18.601Z,71.32
2022-12-03T01:39:20.824Z,71.58
2022-12-03T01:42:50.221Z,72.25
2022-12-03T01:45:52.467Z,72.09
2022-12-03T01:48:56.959Z,71.32
2022-12-03T01:52:00.460Z,71.52
2022-12-03T01:55:23.452Z,71.98
2022-12-03T01:58:28.422Z,71.03
2022-12-03T02:01:49.037Z,71.70
2022-12-03T02:04:53.388Z,71.52
2022-12-03T02:07:55.943Z,71.92
2022-12-03T02:11:01.895Z,71.20
2022-12-03T02:14:08.540Z,72.05
2022-12-03T02:17:12.369Z,71.89
2022-12-03T02:20:14.864Z,71.23
2022-12-03T02:23:38.927Z,71.52
2022-12-03T02:26:41.266Z,71.45
2022-12-03T02:30:01.814Z,71.12
2022-12-03T02:33:05.294Z,71.01
2022-12-03T02:36:07.483Z,70.55
2022-12-03T02:39:11.257Z,71.28
2022-12-03T02:42:32.388Z,71.04
2022-12-03T02:45:38.380Z,70.78
2022-12-03T02:52:01.929Z,71.56
2022-12-03T02:55:06.960Z,71.38
2022-12-03T02:58:11.984Z,71.06
2022-12-03T03:01:16.252Z,71.62
2022-12-03T03:04:18.977Z,71.07
2022-12-03T03:07:21.163Z,71.03
2022-12-03T03:10:24.359Z,71.20
2022-12-03T03:13:26.860Z,70.90
2022-12-03T03:16:28.989Z,71.46
2022-12-03T03:19:33.164Z,70.89
2022-12-03T03:22:37.969Z,71.69
2022-12-03T03:25:42.866Z,71.29
2022-12-03T03:28:51.808Z,71.47
2022-12-03T03:31:54.219Z,71.04
2022-12-03T03:34:57.335Z,70.82
2022-12-03T03:38:00.006Z,71.73
2022-12-03T03:41:04.858Z,71.58
2022-12-03T03:44:08.814Z,71.54
2022-12-03T03:47:11.211Z,71.36
2022-12-03T03:50:14.461Z,70.82
2022-12-03T03:53:17.868Z,71.40
2022-12-03T03:56:21.215Z,70.68
2022-12-03T04:03:06.928Z,71.13
2022-12-03T04:06:09.159Z,71.50
2022-12-03T04:09:29.784Z,72.03
2022-12-03T04:16:10.917Z,71.56
2022-12-03T04:19:12.982Z,70.88
2022-12-03T04:22:43.102Z,71.17
2022-12-03T04:26:04.517Z,70.85
2022-12-03T04:29:07.043Z,70.56
2022-12-03T04:32:27.835Z,71.50
2022-12-03T04:35:46.109Z,71.59
2022-12-03T04:38:48.611Z,71.35
2022-12-03T04:41:51.022Z,70.65
2022-12-03T04:44:53.328Z,71.29
2022-12-03T04:47:57.721Z,71.04
2022-12-03T04:50:59.772Z,70.51
2022-12-03T04:54:20.278Z,71.23
2022-12-03T04:57:22.415Z,71.08
2022-12-03T05:00:24.581Z,70.79
2022-12-03T05:03:26.981Z,70.76
2022-12-03T05:06:31.332Z,70.41
2022-12-03T05:09:33.760Z,71.23
2022-12-03T05:12:36.016Z,71.15
2022-12-03T05:15:38.104Z,70.85
2022-12-03T05:18:40.289Z,70.86
2022-12-03T05:21:42.327Z,71.14
2022-12-03T05:24:44.502Z,70.71
2022-12-03T05:27:47.738Z,71.34
2022-12-03T05:30:52.336Z,70.30
2022-12-03T05:33:55.298Z,71.19
2022-12-03T05:36:57.412Z,70.86
2022-12-03T05:40:01.849Z,70.51
2022-12-03T05:43:04.754Z,71.25
2022-12-03T05:46:25.507Z,70.52
2022-12-03T05:49:27.722Z,71.05
2022-12-03T05:52:30.988Z,70.95
2022-12-03T05:55:33.152Z,71.26
2022-12-03T05:59:15.430Z,71.24
2022-12-03T06:02:36.350Z,70.88
2022-12-03T06:05:39.242Z,71.66
2022-12-03T06:08:41.723Z,70.94
2022-12-03T06:11:43.709Z,71.31
2022-12-03T06:14:45.994Z,70.98
2022-12-03T06:17:48.472Z,70.73
2022-12-03T06:20:50.634Z,70.59
2022-12-03T06:24:11.434Z,71.64
2022-12-03T06:27:14.483Z,71.62
2022-12-03T06:30:17.605Z,71.23
2022-12-03T06:33:19.674Z,70.87
2022-12-03T06:36:23.482Z,71.15
2022-12-03T06:39:25.626Z,71.60
2022-12-03T06:42:45.952Z,71.57
2022-12-03T06:45:48.226Z,70.96
2022-12-03T06:48:50.978Z,70.78
2022-12-03T06:51:53.228Z,71.17
2022-12-03T06:54:55.606Z,70.70
2022-12-03T06:57:57.844Z,71.04
2022-12-03T07:00:59.868Z,70.42
2022-12-03T07:04:01.868Z,70.24
2022-12-03T07:07:23.479Z,70.04
2022-12-03T07:10:43.929Z,70.93
2022-12-03T07:13:45.930Z,70.72
2022-12-03T07:16:49.103Z,69.96
2022-12-03T07:19:52.513Z,70.69
2022-12-03T07:22:54.537Z,70.04
2022-12-03T07:26:06.060Z,70.52
2022-12-03T07:29:10.515Z,70.83
2022-12-03T07:32:12.564Z,70.78
2022-12-03T07:35:15.023Z,70.42
2022-12-03T07:38:22.056Z,70.37
2022-12-03T07:41:44.768Z,69.56
2022-12-03T07:44:47.137Z,70.05
2022-12-03T07:47:49.369Z,69.68
2022-12-03T07:50:51.915Z,70.21
2022-12-03T07:54:12.957Z,69.66
2022-12-03T07:57:15.028Z,70.34
2022-12-03T08:00:18.153Z,69.73
2022-12-03T08:03:20.564Z,69.50
2022-12-03T08:06:24.263Z,70.43
2022-12-03T08:09:26.770Z,69.76
2022-12-03T08:12:43.519Z,70.18
2022-12-03T08:16:25.755Z,70.14
2022-12-03T08:19:40.616Z,70.30
2022-12-03T08:23:22.106Z,69.38
2022-12-03T08:26:44.578Z,69.47
2022-12-03T08:29:47.338Z,69.16
2022-12-03T08:32:50.803Z,69.33
2022-12-03T08:35:54.539Z,68.85
2022-12-03T08:39:02.499Z,68.90
2022-12-03T08:42:36.164Z,69.26
2022-12-03T08:45:41.512Z,69.26
2022-12-03T08:48:48.650Z,69.98
2022-12-03T08:52:01.790Z,70.14
2022-12-03T08:55:34.243Z,69.37
2022-12-03T08:58:44.387Z,70.01
2022-12-03T09:01:47.452Z,70.05
2022-12-03T09:04:49.590Z,69.41
2022-12-03T09:07:51.847Z,69.29
2022-12-03T09:10:54.046Z,69.60
2022-12-03T09:13:56.110Z,69.47
2022-12-03T09:17:00.225Z,69.98
2022-12-03T09:20:02.604Z,69.61
2022-12-03T09:23:04.950Z,69.90
2022-12-03T09:26:08.560Z,70.16
2022-12-03T09:29:12.544Z,69.68
2022-12-03T09:32:18.302Z,70.03
2022-12-03T09:35:20.946Z,69.55
2022-12-03T09:38:23.035Z,69.39
2022-12-03T09:41:27.839Z,69.27
2022-12-03T09:44:32.664Z,69.06
2022-12-03T09:47:34.791Z,69.37
2022-12-03T09:50:41.553Z,70.09
2022-12-03T09:53:43.675Z,69.38
2022-12-03T09:56:45.790Z,69.47
2022-12-03T09:59:47.883Z,69.69
2022-12-03T10:02:52.850Z,69.83
2022-12-03T10:05:55.714Z,69.79
2022-12-03T10:09:04.386Z,69.98
2022-12-03T10:12:11.877Z,69.46
2022-12-03T10:15:19.505Z,69.83
2022-12-03T10:18:24.203Z,69.91
2022-12-03T10:21:32.364Z,69.82
2022-12-03T10:24:36.762Z,69.63
2022-12-03T10:27:40.085Z,69.98
2022-12-03T10:30:55.537Z,70.05
2022-12-03T10:33:58.478Z,69.21
2022-12-03T10:37:21.510Z,69.72
2022-12-03T10:40:29.538Z,69.45
2022-12-03T10:43:31.565Z,68.70
2022-12-03T10:46:34.344Z,68.20
2022-12-03T10:49:36.955Z,68.07
2022-12-03T10:52:40.172Z,68.33
2022-12-03T10:55:44.483Z,68.36
2022-12-03T10:58:48.507Z,68.34
2022-12-03T11:01:53.011Z,68.69
2022-12-03T11:04:55.791Z,68.61
2022-12-03T11:07:58.137Z,68.13
2022-12-03T11:11:03.616Z,67.92
2022-12-03T11:14:05.973Z,68.64
2022-12-03T11:17:08.354Z,68.39
2022-12-03T11:20:15.779Z,68.35
2022-12-03T11:23:44.613Z,68.45
2022-12-03T11:27:09.760Z,67.47
2022-12-03T11:30:11.902Z,67.86
2022-12-03T11:33:24.735Z,68.06
2022-12-03T11:36:47.745Z,68.06
2022-12-03T11:40:07.325Z,68.40
2022-12-03T11:43:10.114Z,67.87
2022-12-03T11:46:21.759Z,68.16
2022-12-03T11:49:32.581Z,67.19
2022-12-03T11:52:43.452Z,68.12
2022-12-03T11:56:09.210Z,68.27
2022-12-03T12:02:47.266Z,68.06
2022-12-03T12:06:10.671Z,68.38
2022-12-03T12:09:14.153Z,67.80
2022-12-03T12:12:48.968Z,67.68
2022-12-03T12:16:02.154Z,67.75
2022-12-03T12:19:37.265Z,67.39
2022-12-03T12:22:39.552Z,68.58
2022-12-03T12:25:42.016Z,68.45
2022-12-03T12:28:44.090Z,68.84
2022-12-03T12:31:50.773Z,68.45
2022-12-03T12:35:02.367Z,68.51
2022-12-03T12:38:07.229Z,68.50
2022-12-03T12:41:10.367Z,67.99
2022-12-03T12:44:14.118Z,68.20
2022-12-03T12:47:16.281Z,68.13
2022-12-03T12:50:19.326Z,68.91
2022-12-03T12:53:35.305Z,68.34
2022-12-03T12:56:37.579Z,68.71
2022-12-03T12:59:39.855Z,68.00
2022-12-03T13:02:45.428Z,68.46
2022-12-03T13:05:50.388Z,68.94
2022-12-03T13:08:53.186Z,68.06
2022-12-03T13:12:00.084Z,67.92
2022-12-03T13:15:02.108Z,68.12
2022-12-03T13:18:34.343Z,68.49
2022-12-03T13:21:45.810Z,67.97
2022-12-03T13:24:52.807Z,67.72
2022-12-03T13:27:54.998Z,67.46
2022-12-03T13:31:26.519Z,67.38
2022-12-03T13:34:33.194Z,68.81
2022-12-03T13:37:35.321Z,69.84
2022-12-03T13:40:37.816Z,68.54
2022-12-03T13:43:44.523Z,66.47
2022-12-03T13:46:47.190Z,63.97
2022-12-03T13:50:03.709Z,63.61
2022-12-03T13:53:12.227Z,61.59
2022-12-03T13:56:27.866Z,60.56
2022-12-03T13:59:29.934Z,59.30
2022-12-03T14:02:32.323Z,59.05
2022-12-03T14:05:34.479Z,58.43
2022-12-03T14:08:37.596Z,54.30
2022-12-03T14:11:58.587Z,53.08
2022-12-03T14:15:06.082Z,52.78
2022-12-03T14:18:08.160Z,52.02
2022-12-03T14:21:10.168Z,50.61
2022-12-03T14:24:12.259Z,53.32
2022-12-03T14:27:14.334Z,55.01
2022-12-03T14:30:17.805Z,54.22
2022-12-03T14:33:20.006Z,51.53
2022-12-03T14:36:24.360Z,50.54
2022-12-03T14:39:26.390Z,51.84
2022-12-03T14:42:28.440Z,53.27
2022-12-03T14:45:31.262Z,49.80
2022-12-03T14:48:33.372Z,49.93
2022-12-03T14:51:35.591Z,52.54
2022-12-03T14:54:39.356Z,49.62
2022-12-03T14:57:41.492Z,49.60
2022-12-03T15:00:43.931Z,52.28
2022-12-03T15:03:46.395Z,52.15
2022-12-03T15:10:44.683Z,49.69
2022-12-03T15:13:54.074Z,51.04
2022-12-03T15:16:56.191Z,49.30
2022-12-03T15:20:05.697Z,48.78
2022-12-03T15:23:14.472Z,50.40
2022-12-03T15:26:23.588Z,48.14
2022-12-03T15:33:06.200Z,49.92
2022-12-03T15:37:23.567Z,48.55
2022-12-03T15:40:26.297Z,49.01
2022-12-03T15:43:32.693Z,49.41
2022-12-03T15:46:34.926Z,48.12
2022-12-03T15:49:36.985Z,48.02
2022-12-03T15:52:39.047Z,48.40
2022-12-03T15:55:41.070Z,47.86
2022-12-03T15:58:43.392Z,47.00
2022-12-03T16:01:45.480Z,47.02
2022-12-03T16:04:47.508Z,47.63
2022-12-03T16:07:49.889Z,48.84
2022-12-03T16:10:53.215Z,54.26
2022-12-03T16:13:56.032Z,60.55
2022-12-03T16:17:01.510Z,61.29
2022-12-03T16:20:04.463Z,63.33
2022-12-03T16:23:10.547Z,63.48
2022-12-03T16:26:16.085Z,64.02
2022-12-03T16:29:18.382Z,64.74
2022-12-03T16:32:20.376Z,65.40
2022-12-03T16:35:22.447Z,66.51
2022-12-03T16:38:24.621Z,67.44
2022-12-03T16:41:26.796Z,62.40
2022-12-03T16:44:48.755Z,64.21
2022-12-03T16:47:54.357Z,67.11
2022-12-03T16:50:56.447Z,65.17
2022-12-03T16:53:58.537Z,68.52
2022-12-03T16:57:00.582Z,69.96
2022-12-03T17:00:02.610Z,68.32
2022-12-03T17:03:06.013Z,66.56
2022-12-03T17:06:08.046Z,70.13
2022-12-03T17:09:10.052Z,71.30
2022-12-03T17:12:12.122Z,68.52
2022-12-03T17:15:17.117Z,70.17
2022-12-03T17:18:19.226Z,73.39
2022-12-03T17:21:25.531Z,68.72
2022-12-03T17:24:27.626Z,70.00
2022-12-03T17:27:29.778Z,70.65
2022-12-03T17:30:32.056Z,69.68
2022-12-03T17:33:34.844Z,67.14
2022-12-03T17:36:37.030Z,68.35
2022-12-03T17:39:39.300Z,69.29
2022-12-03T17:42:49.175Z,67.94
2022-12-03T17:50:42.215Z,70.20
2022-12-03T17:53:45.222Z,71.73
2022-12-03T17:57:27.906Z,72.61
2022-12-03T18:00:30.144Z,72.92
2022-12-03T18:03:32.361Z,73.00
2022-12-03T18:06:34.462Z,73.35
2022-12-03T18:09:36.522Z,72.90
2022-12-03T18:12:38.592Z,73.52
2022-12-03T18:16:05.726Z,73.74
2022-12-03T18:19:09.247Z,75.17
2022-12-03T18:22:12.797Z,75.97
2022-12-03T18:25:14.936Z,77.93
2022-12-03T18:28:16.959Z,78.26
2022-12-03T18:31:21.111Z,78.22
2022-12-03T18:34:23.164Z,78.46
2022-12-03T18:37:29.702Z,80.35
2022-12-03T18:40:31.869Z,79.75
2022-12-03T18:43:36.778Z,80.41
2022-12-03T18:46:52.841Z,80.78
2022-12-03T18:49:56.363Z,81.31
2022-12-03T18:52:58.715Z,81.32
2022-12-03T18:56:02.930Z,81.57
2022-12-03T18:59:06.660Z,81.25
2022-12-03T19:02:32.473Z,81.42
2022-12-03T19:05:37.592Z,81.85
2022-12-03T19:08:39.653Z,81.89
2022-12-03T19:11:41.757Z,81.64
2022-12-03T19:14:43.804Z,81.36
2022-12-03T19:17:49.796Z,81.51
2022-12-03T19:20:51.870Z,81.04
2022-12-03T19:24:22.523Z,81.19
2022-12-03T19:27:16.116Z,81.05
2022-12-03T19:30:18.288Z,81.18
2022-12-03T19:33:25.170Z,82.01
2022-12-03T19:36:31.674Z,82.66
2022-12-03T19:39:33.765Z,83.05
2022-12-03T19:42:36.185Z,82.41
2022-12-03T19:45:38.206Z,83.86
2022-12-03T19:48:43.076Z,86.12
2022-12-03T19:51:45.804Z,82.86
2022-12-03T19:54:47.734Z,80.24
2022-12-03T19:57:52.047Z,81.42
2022-12-03T20:00:54.409Z,79.42
2022-12-03T20:03:58.943Z,76.77
2022-12-03T20:07:01.078Z,79.32
2022-12-03T20:10:04.094Z,76.51
2022-12-03T20:13:08.945Z,77.76
2022-12-03T20:16:13.815Z,74.99
2022-12-03T20:19:17.907Z,76.55
2022-12-03T20:22:19.900Z,76.44
2022-12-03T20:25:22.140Z,76.72
2022-12-03T20:28:26.608Z,77.64
2022-12-03T20:31:30.752Z,78.92
2022-12-03T20:34:36.009Z,78.59
2022-12-03T20:37:40.357Z,78.12
2022-12-03T20:40:45.517Z,78.08
2022-12-03T20:43:47.775Z,80.05
2022-12-03T20:46:50.145Z,80.83
2022-12-03T20:49:52.664Z,81.11
2022-12-03T20:53:22.591Z,81.79
2022-12-03T20:56:20.701Z,82.02
2022-12-03T20:59:23.152Z,82.04
2022-12-03T21:02:25.151Z,81.40
2022-12-03T21:05:27.315Z,82.42
2022-12-03T21:08:41.162Z,80.35
2022-12-03T21:11:44.036Z,80.67
2022-12-03T21:14:46.250Z,80.27
2022-12-03T21:17:48.372Z,80.12
2022-12-03T21:20:50.688Z,79.28
2022-12-03T21:23:53.292Z,79.23
2022-12-03T21:26:55.688Z,79.55
2022-12-03T21:29:57.950Z,78.72
2022-12-03T21:33:00.162Z,78.60
2022-12-03T21:36:02.986Z,78.66
2022-12-03T21:39:06.095Z,79.05
2022-12-03T21:42:18.647Z,79.35
2022-12-03T21:45:32.760Z,79.50
2022-12-03T21:48:35.779Z,80.69
2022-12-03T21:51:37.816Z,80.34
2022-12-03T21:54:43.063Z,80.57
2022-12-03T21:57:45.385Z,81.32
2022-12-03T22:00:47.509Z,81.09
2022-12-03T22:03:50.192Z,80.78
2022-12-03T22:06:52.454Z,81.50
2022-12-03T22:09:54.891Z,80.99
2022-12-03T22:12:57.200Z,80.62
2022-12-03T22:15:59.413Z,80.45
2022-12-03T22:19:01.699Z,80.68
2022-12-03T22:22:03.736Z,80.43
2022-12-03T22:25:06.133Z,80.74
2022-12-03T22:28:08.255Z,80.64
2022-12-03T22:31:11.289Z,81.41
2022-12-03T22:34:13.530Z,81.59
2022-12-03T22:37:15.588Z,81.68
2022-12-03T22:40:17.558Z,82.07
2022-12-03T22:43:20.130Z,82.56
2022-12-03T22:46:22.395Z,82.58
2022-12-03T22:49:25.349Z,82.29
2022-12-03T22:52:27.625Z,81.73
2022-12-03T22:55:29.610Z,82.43
2022-12-03T22:58:34.224Z,82.93
2022-12-03T23:01:59.496Z,82.25
2022-12-03T23:05:01.487Z,81.85
2022-12-03T23:08:05.681Z,81.53
2022-12-03T23:11:08.157Z,81.98
2022-12-03T23:14:10.249Z,81.02
2022-12-03T23:17:12.672Z,82.06
2022-12-03T23:20:15.071Z,81.75
2022-12-03T23:23:18.588Z,82.77
2022-12-03T23:26:21.058Z,83.77
2022-12-03T23:29:23.150Z,82.20
2022-12-03T23:32:25.183Z,82.15
2022-12-03T23:35:27.236Z,81.75
2022-12-03T23:38:32.632Z,81.73
2022-12-03T23:41:37.215Z,81.34
2022-12-03T23:44:39.680Z,81.85
2022-12-03T23:47:41.676Z,80.99
2022-12-03T23:50:43.736Z,80.62
2022-12-03T23:53:46.056Z,80.61
2022-12-03T23:56:48.275Z,80.83
2022-12-03T23:59:50.314Z,80.74
